createdAt,value
2022-10-25T00:01:20.768Z,101012.88
2022-10-25T00:03:47.311Z,101013.78
2022-10-25T00:06:14.226Z,101015.53
2022-10-25T00:08:40.979Z,101019.94
2022-10-25T00:11:10.434Z,101012.91
2022-10-25T00:13:37.029Z,101020.84
2022-10-25T00:16:03.679Z,101029.63
2022-10-25T00:18:30.022Z,101029.66
2022-10-25T00:20:56.418Z,101035.78
2022-10-25T00:23:22.756Z,101037.56
2022-10-25T00:25:49.145Z,101040.22
2022-10-25T00:28:15.545Z,101034.03
2022-10-25T00:30:41.975Z,101042.81
2022-10-25T00:33:08.536Z,101041.03
2022-10-25T00:35:36.781Z,101041.03
2022-10-25T00:38:03.289Z,101048.97
2022-10-25T00:40:29.681Z,101048.09
2022-10-25T00:42:56.067Z,101044.53
2022-10-25T00:45:28.539Z,101047.16
2022-10-25T00:48:01.794Z,101054.16
2022-10-25T00:50:48.308Z,101047.97
2022-10-25T00:53:20.100Z,101056.78
2022-10-25T00:55:51.789Z,101050.59
2022-10-25T00:58:21.502Z,101051.44
2022-10-25T01:00:48.639Z,101051.44
2022-10-25T01:03:17.606Z,101049.72
2022-10-25T01:05:44.839Z,101032.13
2022-10-25T01:08:12.162Z,101049.69
2022-10-25T01:10:39.547Z,101060.28
2022-10-25T01:13:06.073Z,101059.41
2022-10-25T01:15:45.774Z,101069.09
2022-10-25T01:18:27.438Z,101072.63
2022-10-25T01:21:09.530Z,101069.06
2022-10-25T01:23:45.148Z,101058.50
2022-10-25T01:26:39.491Z,101074.38
2022-10-25T01:29:27.003Z,101070.78
2022-10-25T01:32:22.598Z,101071.72
2022-10-25T01:35:16.138Z,101085.81
2022-10-25T01:37:55.761Z,101080.53
2022-10-25T01:40:34.027Z,101071.69
2022-10-25T01:43:12.490Z,101078.72
2022-10-25T01:45:48.342Z,101071.72
2022-10-25T01:48:21.454Z,101084.88
2022-10-25T01:50:48.623Z,101076.03
2022-10-25T01:53:15.530Z,101077.81
2022-10-25T01:55:51.439Z,101073.41
2022-10-25T01:58:29.323Z,101087.53
2022-10-25T02:01:28.341Z,101083.97
2022-10-25T02:04:11.162Z,101081.34
2022-10-25T02:07:16.282Z,101086.63
2022-10-25T02:09:57.153Z,101091.06
2022-10-25T02:12:32.714Z,101091.06
2022-10-25T02:15:24.610Z,101089.31
2022-10-25T02:17:59.067Z,101094.63
2022-10-25T02:20:28.390Z,101090.22
2022-10-25T02:22:58.114Z,101085.81
2022-10-25T02:25:24.765Z,101090.22
2022-10-25T02:27:53.890Z,101092.00
2022-10-25T02:30:23.206Z,101093.78
2022-10-25T02:32:53.168Z,101090.25
2022-10-25T02:35:21.487Z,101097.34
2022-10-25T02:37:48.015Z,101095.56
2022-10-25T02:40:14.738Z,101100.88
2022-10-25T02:42:41.074Z,101107.94
2022-10-25T02:45:08.091Z,101114.97
2022-10-25T02:47:34.651Z,101107.06
2022-10-25T02:50:01.009Z,101107.94
2022-10-25T02:52:27.431Z,101110.59
2022-10-25T02:54:53.814Z,101108.84
2022-10-25T02:57:20.188Z,101110.63
2022-10-25T02:59:46.558Z,101113.28
2022-10-25T03:02:13.469Z,101123.84
2022-10-25T03:04:39.822Z,101127.34
2022-10-25T03:07:06.228Z,101135.31
2022-10-25T03:09:32.719Z,101127.34
2022-10-25T03:11:59.066Z,101131.75
2022-10-25T03:14:25.596Z,101135.28
2022-10-25T03:16:52.041Z,101137.94
2022-10-25T03:19:18.432Z,101144.09
2022-10-25T03:21:44.795Z,101144.97
2022-10-25T03:24:11.204Z,101143.22
2022-10-25T03:26:37.593Z,101147.63
2022-10-25T03:29:07.093Z,101151.16
2022-10-25T03:31:33.425Z,101147.59
2022-10-25T03:33:59.738Z,101158.19
2022-10-25T03:36:26.111Z,101155.56
2022-10-25T03:38:52.500Z,101160.84
2022-10-25T03:41:18.957Z,101156.47
2022-10-25T03:43:45.262Z,101158.22
2022-10-25T03:46:11.640Z,101145.91
2022-10-25T03:48:38.038Z,101171.47
2022-10-25T03:51:04.703Z,101160.03
2022-10-25T03:53:31.324Z,101165.28
2022-10-25T03:55:57.684Z,101172.34
2022-10-25T03:58:24.107Z,101181.19
2022-10-25T04:00:52.966Z,101180.31
2022-10-25T04:03:19.425Z,101178.56
2022-10-25T04:05:45.819Z,101190.03
2022-10-25T04:08:12.190Z,101180.34
2022-10-25T04:10:38.568Z,101178.53
2022-10-25T04:13:04.943Z,101180.31
2022-10-25T04:15:31.416Z,101180.31
2022-10-25T04:17:57.870Z,101187.34
2022-10-25T04:20:24.317Z,101193.53
2022-10-25T04:22:55.100Z,101197.06
2022-10-25T04:25:21.912Z,101190.00
2022-10-25T04:27:48.694Z,101198.81
2022-10-25T04:30:15.297Z,101205.84
2022-10-25T04:32:41.645Z,101203.22
2022-10-25T04:35:08.958Z,101203.19
2022-10-25T04:37:35.365Z,101192.63
2022-10-25T04:40:01.702Z,101200.56
2022-10-25T04:42:28.051Z,101209.38
2022-10-25T04:44:54.385Z,101205.00
2022-10-25T04:47:20.798Z,101212.00
2022-10-25T04:49:47.126Z,101210.25
2022-10-25T04:52:13.502Z,101212.00
2022-10-25T04:54:39.865Z,101220.81
2022-10-25T04:57:09.207Z,101219.97
2022-10-25T04:59:35.510Z,101223.47
2022-10-25T05:02:01.962Z,101235.78
2022-10-25T05:04:28.335Z,101232.28
2022-10-25T05:06:54.713Z,101240.19
2022-10-25T05:09:21.111Z,101234.91
2022-10-25T05:11:47.421Z,101236.69
2022-10-25T05:14:14.717Z,101241.09
2022-10-25T05:16:41.043Z,101230.50
2022-10-25T05:19:10.174Z,101236.69
2022-10-25T05:21:36.553Z,101241.09
2022-10-25T05:24:03.084Z,101239.34
2022-10-25T05:26:30.483Z,101240.22
2022-10-25T05:28:57.350Z,101234.94
2022-10-25T05:31:26.300Z,101245.50
2022-10-25T05:33:57.689Z,101245.47
2022-10-25T05:36:25.348Z,101243.75
2022-10-25T05:38:52.054Z,101246.38
2022-10-25T05:41:18.961Z,101261.34
2022-10-25T05:43:45.899Z,101263.97
2022-10-25T05:46:18.514Z,101257.81
2022-10-25T05:48:48.776Z,101257.81
2022-10-25T05:51:45.811Z,101270.16
2022-10-25T05:54:14.255Z,101271.91
2022-10-25T05:56:42.217Z,101278.06
2022-10-25T05:59:10.911Z,101275.44
2022-10-25T06:01:40.850Z,101280.69
2022-10-25T06:04:08.559Z,101289.50
2022-10-25T06:06:36.141Z,101286.88
2022-10-25T06:09:03.215Z,101284.25
2022-10-25T06:11:30.108Z,101287.78
2022-10-25T06:13:56.792Z,101288.66
2022-10-25T06:16:23.879Z,101281.63
2022-10-25T06:18:50.923Z,101279.84
2022-10-25T06:21:20.833Z,101293.03
2022-10-25T06:23:48.172Z,101299.22
2022-10-25T06:26:20.148Z,101301.88
2022-10-25T06:28:46.573Z,101305.38
2022-10-25T06:31:15.617Z,101310.66
2022-10-25T06:33:42.723Z,101311.53
2022-10-25T06:36:16.282Z,101312.44
2022-10-25T06:38:46.310Z,101317.72
2022-10-25T06:41:15.343Z,101319.47
2022-10-25T06:43:41.804Z,101311.56
2022-10-25T06:46:18.032Z,101330.91
2022-10-25T06:48:44.397Z,101324.75
2022-10-25T06:51:10.825Z,101332.69
2022-10-25T06:53:38.357Z,101332.69
2022-10-25T06:56:14.365Z,101333.56
2022-10-25T06:58:41.192Z,101330.94
2022-10-25T07:01:11.342Z,101335.31
2022-10-25T07:03:37.897Z,101338.84
2022-10-25T07:06:09.789Z,101344.13
2022-10-25T07:08:36.992Z,101348.59
2022-10-25T07:11:04.227Z,101350.34
2022-10-25T07:13:32.736Z,101355.66
2022-10-25T07:16:03.512Z,101361.81
2022-10-25T07:18:31.319Z,101358.28
2022-10-25T07:21:05.552Z,101361.81
2022-10-25T07:23:32.624Z,101359.16
2022-10-25T07:25:59.878Z,101371.50
2022-10-25T07:28:27.311Z,101376.78
2022-10-25T07:30:53.954Z,101374.16
2022-10-25T07:33:20.637Z,101377.66
2022-10-25T07:36:10.768Z,101369.72
2022-10-25T07:38:37.678Z,101378.53
2022-10-25T07:41:04.321Z,101375.03
2022-10-25T07:43:30.834Z,101378.53
2022-10-25T07:45:57.241Z,101382.97
2022-10-25T07:48:25.962Z,101384.72
2022-10-25T07:50:52.325Z,101391.75
2022-10-25T07:53:18.765Z,101386.47
2022-10-25T07:55:52.413Z,101384.72
2022-10-25T07:58:19.247Z,101390.91
2022-10-25T08:00:45.827Z,101393.53
2022-10-25T08:03:16.822Z,101397.94
2022-10-25T08:05:48.896Z,101399.69
2022-10-25T08:08:15.313Z,101409.41
2022-10-25T08:10:43.500Z,101410.28
2022-10-25T08:13:10.545Z,101409.41
2022-10-25T08:15:39.367Z,101414.69
2022-10-25T08:18:07.383Z,101420.88
2022-10-25T08:21:00.113Z,101412.03
2022-10-25T08:23:20.284Z,101407.63
2022-10-25T08:25:47.538Z,101416.44
2022-10-25T08:28:13.923Z,101411.16
2022-10-25T08:30:41.501Z,101421.72
2022-10-25T08:33:11.393Z,101412.88
2022-10-25T08:35:38.642Z,101418.19
2022-10-25T08:38:05.636Z,101417.31
2022-10-25T08:41:11.878Z,101421.69
2022-10-25T08:44:05.697Z,101427.00
2022-10-25T08:46:39.256Z,101431.38
2022-10-25T08:49:19.599Z,101429.56
2022-10-25T08:51:50.475Z,101442.78
2022-10-25T08:54:32.027Z,101445.41
2022-10-25T08:57:15.784Z,101435.66
2022-10-25T08:59:48.411Z,101437.44
2022-10-25T09:02:28.097Z,101451.53
2022-10-25T09:04:54.993Z,101450.56
2022-10-25T09:07:45.222Z,101452.31
2022-10-25T09:10:29.329Z,101458.47
2022-10-25T09:13:10.938Z,101460.00
2022-10-25T09:15:50.891Z,101459.88
2022-10-25T09:18:19.259Z,101460.44
2022-10-25T09:20:50.838Z,101457.75
2022-10-25T09:23:26.640Z,101463.00
2022-10-25T09:26:03.516Z,101472.38
2022-10-25T09:29:04.828Z,101467.63
2022-10-25T09:31:41.020Z,101471.50
2022-10-25T09:34:10.303Z,101460.28
2022-10-25T09:37:17.164Z,101473.19
2022-10-25T09:39:52.036Z,101466.53
2022-10-25T09:42:26.505Z,101475.28
2022-10-25T09:45:04.313Z,101475.47
2022-10-25T09:47:43.512Z,101473.94
2022-10-25T09:50:26.748Z,101479.44
2022-10-25T09:53:09.629Z,101488.94
2022-10-25T09:55:41.813Z,101476.00
2022-10-25T09:58:16.923Z,101485.69
2022-10-25T10:00:43.694Z,101486.38
2022-10-25T10:03:13.770Z,101489.75
2022-10-25T10:05:47.681Z,101489.31
2022-10-25T10:08:14.035Z,101484.94
2022-10-25T10:10:41.307Z,101495.50
2022-10-25T10:13:16.798Z,101500.56
2022-10-25T10:15:57.579Z,101505.31
2022-10-25T10:18:34.855Z,101501.59
2022-10-25T10:21:03.377Z,101518.22
2022-10-25T10:23:43.392Z,101512.66
2022-10-25T10:26:18.824Z,101512.28
2022-10-25T10:28:48.722Z,101520.53
2022-10-25T10:31:16.340Z,101512.81
2022-10-25T10:33:51.215Z,101516.47
2022-10-25T10:36:29.749Z,101514.72
2022-10-25T10:39:19.881Z,101517.44
2022-10-25T10:42:00.935Z,101518.34
2022-10-25T10:44:27.600Z,101519.22
2022-10-25T10:46:57.596Z,101514.84
2022-10-25T10:49:34.532Z,101520.97
2022-10-25T10:52:02.746Z,101519.66
2022-10-25T10:54:32.210Z,101517.50
2022-10-25T10:57:04.280Z,101530.69
2022-10-25T10:59:38.697Z,101531.38
2022-10-25T11:02:20.940Z,101526.25
2022-10-25T11:04:53.120Z,101525.44
2022-10-25T11:07:35.673Z,101530.72
2022-10-25T11:10:16.933Z,101532.91
2022-10-25T11:12:44.334Z,101533.41
2022-10-25T11:15:14.886Z,101534.25
2022-10-25T11:17:50.803Z,101537.06
2022-10-25T11:20:34.251Z,101530.91
2022-10-25T11:23:12.933Z,101518.88
2022-10-25T11:26:02.164Z,101523.97
2022-10-25T11:28:52.395Z,101534.16
2022-10-25T11:31:24.032Z,101543.41
2022-10-25T11:34:09.219Z,101528.78
2022-10-25T11:36:48.869Z,101526.53
2022-10-25T11:39:48.331Z,101530.94
2022-10-25T11:42:40.019Z,101528.34
2022-10-25T11:45:33.114Z,101537.47
2022-10-25T11:48:11.412Z,101528.78
2022-10-25T11:50:52.740Z,101531.50
2022-10-25T11:53:32.888Z,101527.97
2022-10-25T11:56:09.447Z,101524.06
2022-10-25T11:58:58.111Z,101528.84
2022-10-25T12:01:42.546Z,101529.69
2022-10-25T12:04:29.745Z,101529.09
2022-10-25T12:07:06.572Z,101526.34
2022-10-25T12:09:47.882Z,101537.13
2022-10-25T12:12:18.335Z,101533.72
2022-10-25T12:14:49.506Z,101548.88
2022-10-25T12:17:25.735Z,101532.59
2022-10-25T12:19:55.376Z,101534.84
2022-10-25T12:22:26.057Z,101537.91
2022-10-25T12:25:01.297Z,101546.97
2022-10-25T12:27:29.732Z,101539.16
2022-10-25T12:30:05.976Z,101535.84
2022-10-25T12:32:42.663Z,101522.22
2022-10-25T12:35:26.933Z,101519.84
2022-10-25T12:38:14.961Z,101531.78
2022-10-25T12:40:47.648Z,101525.25
2022-10-25T12:43:31.266Z,101538.31
2022-10-25T12:46:22.134Z,101541.81
2022-10-25T12:48:54.376Z,101540.94
2022-10-25T12:51:32.965Z,101549.81
2022-10-25T12:54:04.935Z,101538.28
2022-10-25T12:56:43.026Z,101536.50
2022-10-25T12:59:34.214Z,101531.16
2022-10-25T13:02:25.354Z,101533.22
2022-10-25T13:05:21.100Z,101540.50
2022-10-25T13:07:50.100Z,101531.72
2022-10-25T13:10:22.253Z,101535.50
2022-10-25T13:13:03.450Z,101528.72
2022-10-25T13:15:44.939Z,101528.13
2022-10-25T13:18:46.668Z,101525.56
2022-10-25T13:21:15.328Z,101522.91
2022-10-25T13:23:51.419Z,101512.34
2022-10-25T13:26:19.498Z,101531.63
2022-10-25T13:28:59.781Z,101514.97
2022-10-25T13:31:34.973Z,101532.75
2022-10-25T13:34:13.497Z,101531.22
2022-10-25T13:36:54.364Z,101533.03
2022-10-25T13:39:35.006Z,101539.25
2022-10-25T13:42:07.871Z,101531.38
2022-10-25T13:44:36.812Z,101532.31
2022-10-25T13:47:03.348Z,101523.41
2022-10-25T13:49:34.746Z,101540.03
2022-10-25T13:52:05.599Z,101530.09
2022-10-25T13:54:47.269Z,101541.63
2022-10-25T13:57:44.403Z,101541.75
2022-10-25T14:00:32.712Z,101545.50
2022-10-25T14:03:09.475Z,101533.25
2022-10-25T14:05:56.955Z,101528.91
2022-10-25T14:08:35.425Z,101519.06
2022-10-25T14:11:33.690Z,101517.19
2022-10-25T14:14:07.819Z,101518.91
2022-10-25T14:16:46.720Z,101517.09
2022-10-25T14:19:21.629Z,101516.31
2022-10-25T14:21:51.362Z,101518.06
2022-10-25T14:24:19.397Z,101515.41
2022-10-25T14:26:54.722Z,101517.31
2022-10-25T14:29:23.273Z,101512.13
2022-10-25T14:31:50.578Z,101518.53
2022-10-25T14:34:27.036Z,101520.41
2022-10-25T14:36:56.225Z,101525.03
2022-10-25T14:39:24.085Z,101526.88
2022-10-25T14:41:59.287Z,101525.13
2022-10-25T14:44:44.369Z,101511.00
2022-10-25T14:47:31.055Z,101511.94
2022-10-25T14:49:58.572Z,101518.19
2022-10-25T14:52:27.044Z,101511.25
2022-10-25T14:55:02.664Z,101515.72
2022-10-25T14:57:30.430Z,101510.41
2022-10-25T15:00:02.377Z,101504.19
2022-10-25T15:02:40.279Z,101497.22
2022-10-25T15:05:07.448Z,101493.72
2022-10-25T15:07:45.746Z,101493.69
2022-10-25T15:10:30.110Z,101498.06
2022-10-25T15:13:05.127Z,101500.69
2022-10-25T15:15:44.009Z,101502.53
2022-10-25T15:18:31.881Z,101493.72
2022-10-25T15:21:18.171Z,101489.34
2022-10-25T15:24:09.409Z,101488.53
2022-10-25T15:26:38.254Z,101497.44
2022-10-25T15:29:06.162Z,101492.09
2022-10-25T15:31:32.629Z,101493.91
2022-10-25T15:34:04.378Z,101496.63
2022-10-25T15:36:31.802Z,101498.47
2022-10-25T15:39:08.990Z,101500.38
2022-10-25T15:41:36.720Z,101503.91
2022-10-25T15:44:05.567Z,101504.88
2022-10-25T15:46:38.019Z,101502.25
2022-10-25T15:49:08.163Z,101498.81
2022-10-25T15:51:41.462Z,101505.13
2022-10-25T15:54:16.327Z,101499.13
2022-10-25T15:56:43.222Z,101494.00
2022-10-25T15:59:09.885Z,101500.22
2022-10-25T16:01:38.499Z,101485.19
2022-10-25T16:04:04.910Z,101494.03
2022-10-25T16:06:31.390Z,101488.72
2022-10-25T16:08:57.724Z,101480.75
2022-10-25T16:11:24.395Z,101480.75
2022-10-25T16:13:53.307Z,101485.19
2022-10-25T16:16:39.916Z,101493.16
2022-10-25T16:19:13.405Z,101487.06
2022-10-25T16:21:39.723Z,101489.81
2022-10-25T16:24:06.160Z,101490.72
2022-10-25T16:26:47.484Z,101484.59
2022-10-25T16:29:19.248Z,101484.66
2022-10-25T16:31:45.501Z,101498.88
2022-10-25T16:34:12.168Z,101499.00
2022-10-25T16:36:38.542Z,101498.09
2022-10-25T16:39:06.266Z,101493.72
2022-10-25T16:41:33.358Z,101500.84
2022-10-25T16:43:59.846Z,101502.63
2022-10-25T16:46:26.946Z,101497.31
2022-10-25T16:48:54.950Z,101499.13
2022-10-25T16:51:24.836Z,101507.13
2022-10-25T16:53:51.893Z,101512.47
2022-10-25T16:56:18.399Z,101510.75
2022-10-25T16:58:44.945Z,101511.69
2022-10-25T17:01:28.484Z,101507.25
2022-10-25T17:03:55.140Z,101494.88
2022-10-25T17:06:40.408Z,101497.53
2022-10-25T17:09:10.108Z,101496.63
2022-10-25T17:11:36.587Z,101494.88
2022-10-25T17:14:03.631Z,101497.53
2022-10-25T17:16:30.209Z,101499.34
2022-10-25T17:18:57.243Z,101494.00
2022-10-25T17:21:23.690Z,101493.13
2022-10-25T17:23:50.080Z,101496.63
2022-10-25T17:26:16.500Z,101493.13
2022-10-25T17:28:44.242Z,101494.00
2022-10-25T17:31:13.318Z,101495.81
2022-10-25T17:33:40.596Z,101490.50
2022-10-25T17:36:09.107Z,101487.84
2022-10-25T17:38:38.902Z,101491.38
2022-10-25T17:41:05.530Z,101496.72
2022-10-25T17:43:34.029Z,101489.69
2022-10-25T17:46:06.088Z,101490.66
2022-10-25T17:48:33.391Z,101487.13
2022-10-25T17:51:04.729Z,101489.81
2022-10-25T17:53:31.603Z,101489.81
2022-10-25T17:55:59.365Z,101489.91
2022-10-25T17:58:25.725Z,101495.25
2022-10-25T18:00:54.480Z,101498.84
2022-10-25T18:03:21.222Z,101491.81
2022-10-25T18:05:48.231Z,101494.50
2022-10-25T18:08:14.532Z,101500.69
2022-10-25T18:10:40.867Z,101489.22
2022-10-25T18:13:07.242Z,101497.19
2022-10-25T18:15:35.469Z,101498.97
2022-10-25T18:18:01.838Z,101500.78
2022-10-25T18:20:28.171Z,101498.16
2022-10-25T18:22:57.753Z,101492.91
2022-10-25T18:25:26.738Z,101495.56
2022-10-25T18:27:53.067Z,101500.00
2022-10-25T18:30:19.442Z,101507.06
2022-10-25T18:32:45.783Z,101508.88
2022-10-25T18:35:12.117Z,101507.13
2022-10-25T18:37:38.478Z,101497.41
2022-10-25T18:40:05.838Z,101508.91
2022-10-25T18:42:32.337Z,101502.75
2022-10-25T18:44:58.703Z,101501.00
2022-10-25T18:47:25.095Z,101498.41
2022-10-25T18:49:51.471Z,101504.59
2022-10-25T18:52:17.914Z,101507.25
2022-10-25T18:54:44.442Z,101507.22
2022-10-25T18:57:10.824Z,101505.47
2022-10-25T18:59:37.156Z,101496.69
2022-10-25T19:02:03.751Z,101496.66
2022-10-25T19:04:30.196Z,101498.44
2022-10-25T19:06:56.535Z,101497.53
2022-10-25T19:09:22.883Z,101501.06
2022-10-25T19:11:51.780Z,101498.44
2022-10-25T19:14:18.215Z,101497.53
2022-10-25T19:16:50.624Z,101500.22
2022-10-25T19:19:17.182Z,101490.50
2022-10-25T19:21:43.520Z,101482.56
2022-10-25T19:24:13.871Z,101487.84
2022-10-25T19:26:41.054Z,101485.19
2022-10-25T19:29:07.757Z,101481.69
2022-10-25T19:31:34.108Z,101483.44
2022-10-25T19:34:02.933Z,101487.84
2022-10-25T19:36:29.491Z,101481.69
2022-10-25T19:38:55.839Z,101488.75
2022-10-25T19:41:23.850Z,101476.41
2022-10-25T19:43:50.295Z,101466.72
2022-10-25T19:46:16.830Z,101471.13
2022-10-25T19:48:43.189Z,101471.13
2022-10-25T19:51:12.401Z,101464.06
2022-10-25T19:53:39.529Z,101478.19
2022-10-25T19:56:18.150Z,101472.88
2022-10-25T19:58:44.985Z,101475.50
2022-10-25T20:01:12.753Z,101466.69
2022-10-25T20:03:40.493Z,101465.81
2022-10-25T20:06:12.900Z,101462.28
2022-10-25T20:08:40.298Z,101464.06
2022-10-25T20:11:08.931Z,101449.94
2022-10-25T20:13:36.345Z,101463.19
2022-10-25T20:16:03.318Z,101457.00
2022-10-25T20:18:32.554Z,101454.38
2022-10-25T20:21:10.339Z,101457.03
2022-10-25T20:23:37.645Z,101443.78
2022-10-25T20:26:49.812Z,101449.06
2022-10-25T20:29:21.387Z,101448.22
2022-10-25T20:31:49.302Z,101453.47
2022-10-25T20:34:16.144Z,101449.97
2022-10-25T20:36:42.534Z,101447.28
2022-10-25T20:39:08.945Z,101452.59
2022-10-25T20:41:35.949Z,101450.84
2022-10-25T20:44:05.693Z,101458.78
2022-10-25T20:46:33.431Z,101453.47
2022-10-25T20:49:02.625Z,101455.25
2022-10-25T20:51:29.113Z,101461.38
2022-10-25T20:53:56.730Z,101459.63
2022-10-25T20:56:23.840Z,101464.91
2022-10-25T20:58:50.652Z,101455.22
2022-10-25T21:01:17.346Z,101457.00
2022-10-25T21:03:43.840Z,101452.59
2022-10-25T21:06:14.206Z,101455.22
2022-10-25T21:08:40.846Z,101451.69
2022-10-25T21:11:09.767Z,101455.22
2022-10-25T21:13:37.099Z,101449.91
2022-10-25T21:16:14.424Z,101451.66
2022-10-25T21:18:42.125Z,101451.66
2022-10-25T21:21:14.822Z,101453.41
2022-10-25T21:23:44.796Z,101451.59
2022-10-25T21:26:11.291Z,101448.09
2022-10-25T21:28:39.905Z,101448.09
2022-10-25T21:31:09.653Z,101444.56
2022-10-25T21:33:36.009Z,101447.19
2022-10-25T21:36:04.324Z,101449.84
2022-10-25T21:38:30.815Z,101448.97
2022-10-25T21:41:05.316Z,101441.03
2022-10-25T21:43:31.694Z,101441.91
2022-10-25T21:45:58.868Z,101442.78
2022-10-25T21:48:25.304Z,101446.28
2022-10-25T21:50:55.525Z,101435.72
2022-10-25T21:53:22.379Z,101440.16
2022-10-25T21:55:48.817Z,101443.66
2022-10-25T21:58:15.242Z,101440.13
2022-10-25T22:00:42.246Z,101437.50
2022-10-25T22:03:08.802Z,101439.25
2022-10-25T22:05:35.307Z,101436.56
2022-10-25T22:08:01.618Z,101438.34
2022-10-25T22:10:27.947Z,101428.63
2022-10-25T22:12:57.332Z,101433.91
2022-10-25T22:15:23.734Z,101431.28
2022-10-25T22:17:52.578Z,101434.78
2022-10-25T22:20:19.019Z,101439.16
2022-10-25T22:22:45.726Z,101433.03
2022-10-25T22:25:12.253Z,101432.16
2022-10-25T22:27:40.900Z,101423.34
2022-10-25T22:30:08.070Z,101430.38
2022-10-25T22:32:34.387Z,101433.88
2022-10-25T22:35:00.704Z,101428.59
2022-10-25T22:37:27.130Z,101423.34
2022-10-25T22:39:53.458Z,101432.13
2022-10-25T22:42:19.773Z,101431.25
2022-10-25T22:44:46.330Z,101427.69
2022-10-25T22:47:12.634Z,101426.75
2022-10-25T22:49:48.071Z,101422.34
2022-10-25T22:52:14.487Z,101422.34
2022-10-25T22:54:40.804Z,101420.56
2022-10-25T22:57:07.125Z,101422.31
2022-10-25T22:59:33.478Z,101415.25
2022-10-25T23:01:59.912Z,101412.63
2022-10-25T23:04:26.286Z,101420.53
2022-10-25T23:06:52.634Z,101421.44
2022-10-25T23:09:19.135Z,101415.25
2022-10-25T23:11:45.913Z,101416.16
2022-10-25T23:14:15.162Z,101414.41
2022-10-25T23:16:43.931Z,101424.94
2022-10-25T23:19:10.262Z,101419.66
2022-10-25T23:21:36.692Z,101407.34
2022-10-25T23:24:03.247Z,101412.59
2022-10-25T23:26:32.056Z,101416.16
2022-10-25T23:28:59.691Z,101410.84
2022-10-25T23:31:27.146Z,101414.34
2022-10-25T23:33:55.591Z,101417.88
2022-10-25T23:36:24.348Z,101409.91
2022-10-25T23:38:52.420Z,101413.41
2022-10-25T23:41:20.027Z,101398.41
2022-10-25T23:43:46.478Z,101407.22
2022-10-25T23:46:13.238Z,101408.97
2022-10-25T23:48:39.933Z,101414.25
2022-10-25T23:51:08.734Z,101408.09
2022-10-25T23:53:35.593Z,101402.78
2022-10-25T23:56:03.593Z,101395.72
2022-10-25T23:58:30.199Z,101401.91
